Time;durP1;ratioP1;P1;durP2;ratioP2;P2;SDS_P1;SDS_P2;PMS_P1;PMS_P2;Temp;Humidity;BMP_temperature;BMP_pressure;BME280_temperature;BME280_humidity;BME280_pressure;Samples;Min_cycle;Max_cycle;Signal;HPM_P1;HPM_P2
2021/12/18 00:01:49;;;;;;;17.83;10.15;;;;;;;3.17;100.00;101518.41;5050289;28;20025;-80
2021/12/18 00:04:15;;;;;;;17.35;10.25;;;;;;;3.11;100.00;101500.28;5050468;28;20120;-80
2021/12/18 00:06:40;;;;;;;21.30;10.35;;;;;;;3.08;100.00;101497.69;5050294;28;20103;-80
2021/12/18 00:09:08;;;;;;;15.90;10.05;;;;;;;3.20;100.00;101524.47;5052024;28;20025;-80
2021/12/18 00:11:33;;;;;;;18.38;10.35;;;;;;;3.20;100.00;101528.72;5051830;28;20056;-80
2021/12/18 00:13:59;;;;;;;21.52;10.05;;;;;;;3.17;100.00;101528.72;5051652;28;20036;-80
2021/12/18 00:16:24;;;;;;;20.85;10.05;;;;;;;3.07;100.00;101512.25;5051695;28;20029;-80
2021/12/18 00:18:52;;;;;;;18.13;10.00;;;;;;;3.13;100.00;101526.94;5050231;28;20029;-79
2021/12/18 00:21:19;;;;;;;18.92;10.02;;;;;;;3.19;100.00;101521.84;5051971;28;20024;-79
2021/12/18 00:23:45;;;;;;;21.20;10.02;;;;;;;3.19;100.00;101534.72;5051642;28;20032;-80
2021/12/18 00:26:11;;;;;;;17.40;10.35;;;;;;;3.20;100.00;101532.19;5051917;28;20025;-80
2021/12/18 00:28:37;;;;;;;22.30;9.80;;;;;;;3.19;100.00;101538.16;5050400;28;20063;-80
2021/12/18 00:31:02;;;;;;;15.00;9.15;;;;;;;3.14;100.00;101526.09;5050079;28;20033;-80
2021/12/18 00:33:27;;;;;;;17.58;10.57;;;;;;;3.05;100.00;101513.09;5050284;28;20125;-80
2021/12/18 00:35:53;;;;;;;21.48;10.50;;;;;;;3.04;100.00;101513.94;5050234;28;20029;-80
2021/12/18 00:38:18;;;;;;;18.58;11.32;;;;;;;3.12;100.00;101538.94;5050338;28;20071;-80
2021/12/18 00:40:58;;;;;;;22.50;12.25;;;;;;;3.14;100.00;101542.41;5051320;28;20029;-80
2021/12/18 00:43:29;;;;;;;16.45;10.23;;;;;;;3.11;100.00;101550.06;5050215;28;20021;-79
2021/12/18 00:45:54;;;;;;;17.55;11.13;;;;;;;3.11;100.00;101560.38;5051116;28;20025;-79
2021/12/18 00:48:20;;;;;;;19.58;10.63;;;;;;;3.08;100.00;101550.06;5050021;28;20044;-80
2021/12/18 00:50:46;;;;;;;17.15;10.55;;;;;;;3.11;100.00;101555.22;5049926;28;20025;-79
2021/12/18 00:53:12;;;;;;;25.52;13.68;;;;;;;3.14;100.00;101567.28;5050223;28;20090;-80
2021/12/18 00:55:38;;;;;;;23.00;12.85;;;;;;;2.97;100.00;101543.88;5053006;28;20128;-79
2021/12/18 00:58:03;;;;;;;19.65;10.57;;;;;;;2.97;100.00;101543.88;5054751;28;20515;-80
2021/12/18 01:00:30;;;;;;;20.05;10.77;;;;;;;2.99;100.00;101545.63;5053605;28;20053;-80
2021/12/18 01:03:00;;;;;;;18.08;10.30;;;;;;;3.11;100.00;101559.50;5053692;28;20035;-80
2021/12/18 01:05:28;;;;;;;22.75;11.38;;;;;;;3.10;100.00;101560.34;5055162;28;20017;-79
2021/12/18 01:07:56;;;;;;;17.67;11.38;;;;;;;3.11;100.00;101573.25;5054709;28;20036;-79
2021/12/18 01:12:59;;;;;;;19.27;10.02;;;;;;;3.07;100.00;101553.44;5054570;28;20362;-80
2021/12/18 01:15:34;;;;;;;14.05;10.20;;;;;;;3.13;100.00;101557.84;5053296;28;20052;-80
2021/12/18 01:23:29;;;;;;;20.45;10.68;;;;;;;3.04;100.00;101549.97;5052458;28;20456;-79
2021/12/18 01:25:55;;;;;;;22.08;11.00;;;;;;;3.11;100.00;101554.34;5051869;28;20083;-80
2021/12/18 01:28:21;;;;;;;19.45;10.15;;;;;;;3.14;100.00;101565.56;5051916;28;20119;-80
2021/12/18 01:30:47;;;;;;;22.63;10.45;;;;;;;3.12;100.00;101553.50;5034665;28;20049;-80
2021/12/18 01:33:12;;;;;;;19.60;10.35;;;;;;;3.01;100.00;101527.63;5051885;28;20068;-79
2021/12/18 01:35:38;;;;;;;16.30;9.07;;;;;;;3.11;100.00;101549.22;5051713;28;20029;-79
2021/12/18 01:38:04;;;;;;;16.98;9.40;;;;;;;3.06;100.00;101531.13;5051262;28;20068;-79
2021/12/18 01:40:30;;;;;;;16.08;9.80;;;;;;;3.11;100.00;101533.75;5051400;28;20036;-80
2021/12/18 01:46:01;;;;;;;20.00;9.25;;;;;;;3.17;100.00;101542.44;5051804;28;20079;-80
2021/12/18 01:51:20;;;;;;;15.63;9.20;;;;;;;3.13;100.00;101543.25;5053851;28;20055;-80
2021/12/18 01:53:50;;;;;;;15.65;9.48;;;;;;;3.10;100.00;101526.88;5053718;28;20393;-80
2021/12/18 01:56:15;;;;;;;17.52;9.50;;;;;;;3.17;100.00;101547.59;5053727;28;20167;-79
2021/12/18 01:58:44;;;;;;;16.27;8.93;;;;;;;3.21;100.00;101556.25;5053612;28;20444;-79
2021/12/18 02:01:09;;;;;;;18.13;9.85;;;;;;;3.10;100.00;101535.47;5052082;28;20040;-79
2021/12/18 02:03:35;;;;;;;15.27;8.82;;;;;;;3.17;100.00;101541.59;5052426;28;20021;-79
2021/12/18 02:06:00;;;;;;;17.65;9.73;;;;;;;3.16;100.00;101543.31;5052724;28;20043;-79
2021/12/18 02:08:27;;;;;;;19.55;9.30;;;;;;;3.13;100.00;101538.09;5053542;28;20021;-79
2021/12/18 02:11:24;;;;;;;15.88;8.75;;;;;;;3.18;100.00;101538.16;5053062;28;20040;-79
2021/12/18 02:14:22;;;;;;;17.80;9.40;;;;;;;3.09;100.00;101517.44;5050583;28;20077;-79
2021/12/18 02:22:17;;;;;;;21.23;9.90;;;;;;;3.14;100.00;101538.97;5050804;28;20558;-79
2021/12/18 02:24:43;;;;;;;16.50;9.20;;;;;;;3.16;100.00;101534.69;5050764;28;20078;-79
2021/12/18 02:27:09;;;;;;;17.40;9.77;;;;;;;3.16;100.00;101545.88;5050540;28;20029;-79
2021/12/18 02:29:37;;;;;;;20.30;9.52;;;;;;;3.05;100.00;101525.97;5050745;28;20431;-80
2021/12/18 02:32:05;;;;;;;16.85;8.43;;;;;;;3.14;100.00;101537.25;5050581;28;20044;-79
2021/12/18 02:34:32;;;;;;;15.48;9.13;;;;;;;3.07;100.00;101525.13;5050566;28;20483;-79
2021/12/18 02:37:04;;;;;;;14.02;8.32;;;;;;;3.15;100.00;101538.09;5050395;28;20408;-79
2021/12/18 02:42:19;;;;;;;16.42;9.60;;;;;;;3.16;100.00;101540.72;5050415;28;20071;-79
2021/12/18 02:44:45;;;;;;;14.23;9.15;;;;;;;3.14;100.00;101533.81;5050454;28;20443;-79
2021/12/18 02:47:12;;;;;;;16.50;9.48;;;;;;;3.19;100.00;101552.75;5050265;28;20037;-79
2021/12/18 02:49:46;;;;;;;14.77;8.82;;;;;;;3.02;100.00;101523.34;5050094;28;20175;-79
2021/12/18 02:52:12;;;;;;;14.80;9.48;;;;;;;3.07;100.00;101539.72;5033336;28;20029;-80
2021/12/18 02:54:42;;;;;;;13.35;8.90;;;;;;;3.11;100.00;101546.63;5050280;28;20040;-79
2021/12/18 02:57:07;;;;;;;18.13;9.80;;;;;;;3.04;100.00;101535.41;5049367;28;20033;-79
2021/12/18 02:59:52;;;;;;;14.98;9.38;;;;;;;3.12;100.00;101548.34;5052828;28;20035;-79
2021/12/18 03:02:19;;;;;;;14.82;10.35;;;;;;;3.01;100.00;101535.34;5052819;28;20060;-79
2021/12/18 03:04:50;;;;;;;17.35;9.27;;;;;;;3.08;100.00;101542.31;5052699;28;20107;-79
2021/12/18 03:07:18;;;;;;;;;;;;;;;3.16;100.00;101548.44;5052726;28;20554;-79
2021/12/18 03:25:33;;;;;;;16.50;10.30;;;;;;;3.12;100.00;101517.47;5052268;28;20028;-79
2021/12/18 03:27:59;;;;;;;17.38;10.43;;;;;;;2.98;100.00;101491.53;5052006;28;20029;-79
2021/12/18 03:30:26;;;;;;;18.48;11.23;;;;;;;3.12;100.00;101510.63;5052072;28;20075;-80
2021/12/18 03:32:52;;;;;;;18.08;10.98;;;;;;;3.12;100.00;101507.16;5050632;28;20091;-80
2021/12/18 03:35:17;;;;;;;16.02;10.90;;;;;;;3.12;100.00;101509.72;5051978;28;20029;-80
2021/12/18 03:37:44;;;;;;;20.50;11.55;;;;;;;3.04;100.00;101488.19;5052082;28;20472;-80
2021/12/18 03:40:13;;;;;;;23.60;12.48;;;;;;;3.04;100.00;101504.50;5051793;28;20025;-79
2021/12/18 03:42:38;;;;;;;17.42;10.70;;;;;;;3.09;100.00;101507.13;5050573;28;20032;-80
2021/12/18 03:45:06;;;;;;;19.73;11.25;;;;;;;3.02;100.00;101490.72;5051601;28;20021;-80
2021/12/18 03:47:31;;;;;;;17.27;10.77;;;;;;;3.07;100.00;101512.25;5052038;28;20448;-80
2021/12/18 03:49:56;;;;;;;15.90;9.82;;;;;;;3.06;100.00;101509.66;5050473;28;20028;-80
2021/12/18 03:52:22;;;;;;;14.35;10.07;;;;;;;3.02;100.00;101511.31;5051755;28;20504;-80
2021/12/18 03:54:48;;;;;;;15.98;9.50;;;;;;;2.98;100.00;101513.00;5051855;28;20025;-80
2021/12/18 03:57:13;;;;;;;17.58;10.82;;;;;;;2.95;100.00;101507.81;5051507;28;20029;-79
2021/12/18 03:59:39;;;;;;;16.05;9.75;;;;;;;3.03;100.00;101525.06;5050342;28;20055;-80
2021/12/18 04:02:04;;;;;;;19.25;10.85;;;;;;;3.02;100.00;101531.06;5051638;28;20377;-79
2021/12/18 04:04:30;;;;;;;16.48;9.93;;;;;;;3.01;100.00;101519.91;5050607;28;20044;-80
2021/12/18 04:06:55;;;;;;;16.77;10.57;;;;;;;3.03;100.00;101517.34;5052174;28;20032;-80
2021/12/18 04:09:20;;;;;;;19.02;10.70;;;;;;;2.99;100.00;101511.28;5066997;28;20103;-79
2021/12/18 04:11:46;;;;;;;17.77;10.30;;;;;;;3.04;100.00;101521.66;5051758;28;20120;-80
2021/12/18 04:14:13;;;;;;;15.38;10.48;;;;;;;2.96;100.00;101503.53;5050126;28;20040;-79
2021/12/18 04:16:39;;;;;;;17.85;11.32;;;;;;;2.85;100.00;101481.91;5051568;28;20380;-79
2021/12/18 04:19:05;;;;;;;16.40;10.13;;;;;;;2.93;100.00;101490.63;5050298;28;20017;-79
2021/12/18 04:21:32;;;;;;;17.50;10.68;;;;;;;2.99;100.00;101493.25;5050449;28;20029;-79
2021/12/18 04:23:59;;;;;;;17.50;10.88;;;;;;;3.03;100.00;101496.75;5051469;28;20025;-79
2021/12/18 04:26:24;;;;;;;17.23;10.88;;;;;;;2.92;100.00;101474.31;5051618;28;20036;-80
2021/12/18 04:28:50;;;;;;;15.40;10.50;;;;;;;3.03;100.00;101487.31;5053352;28;20029;-79
2021/12/18 04:31:16;;;;;;;20.00;9.77;;;;;;;3.02;100.00;101489.88;5054246;28;20048;-80
2021/12/18 04:33:41;;;;;;;20.77;10.45;;;;;;;3.02;100.00;101487.31;5054208;28;20028;-78
2021/12/18 04:36:07;;;;;;;19.55;10.45;;;;;;;2.95;100.00;101476.94;5053739;28;20477;-79
2021/12/18 04:38:33;;;;;;;14.27;8.77;;;;;;;3.00;100.00;101500.16;5055294;28;20029;-79
2021/12/18 04:40:59;;;;;;;15.52;9.75;;;;;;;2.95;100.00;101491.47;5055046;28;20040;-79
2021/12/18 04:43:25;;;;;;;19.88;10.32;;;;;;;2.92;100.00;101486.31;5053762;28;20025;-79
2021/12/18 04:45:51;;;;;;;17.25;9.93;;;;;;;3.02;100.00;101495.03;5055387;28;20488;-79
2021/12/18 04:48:16;;;;;;;19.83;10.25;;;;;;;2.95;100.00;101478.63;5053581;28;20071;-79
2021/12/18 04:50:42;;;;;;;17.00;8.98;;;;;;;2.86;100.00;101471.63;5055025;28;20032;-79
2021/12/18 04:53:07;;;;;;;15.50;9.55;;;;;;;2.94;100.00;101479.47;5053400;28;20029;-79
2021/12/18 04:55:33;;;;;;;17.73;9.80;;;;;;;2.97;100.00;101492.38;5053402;28;20031;-79
2021/12/18 04:57:58;;;;;;;15.88;9.38;;;;;;;2.94;100.00;101479.47;5054709;28;20053;-78
2021/12/18 05:00:36;;;;;;;20.05;10.27;;;;;;;2.93;100.00;101480.31;5055435;28;20111;-79
2021/12/18 05:03:05;;;;;;;18.85;9.20;;;;;;;2.82;100.00;101462.13;5054757;28;20369;-79
2021/12/18 05:05:30;;;;;;;17.38;9.27;;;;;;;2.95;100.00;101478.63;5054977;28;20047;-79
2021/12/18 05:07:55;;;;;;;16.58;9.35;;;;;;;2.98;100.00;101487.25;5054916;28;20029;-79
2021/12/18 05:10:21;;;;;;;17.27;9.27;;;;;;;2.91;100.00;101479.44;5054539;28;20025;-79
2021/12/18 05:12:46;;;;;;;16.35;9.25;;;;;;;2.92;100.00;101478.59;5053392;28;20033;-79
2021/12/18 05:15:12;;;;;;;16.85;8.85;;;;;;;2.84;100.00;101460.47;5053380;28;20028;-79
2021/12/18 05:17:37;;;;;;;17.60;9.27;;;;;;;2.92;100.00;101471.75;5054522;28;20116;-78
2021/12/18 05:20:03;;;;;;;16.85;9.20;;;;;;;2.84;100.00;101457.91;5054321;28;20025;-79
2021/12/18 05:22:28;;;;;;;17.17;9.75;;;;;;;2.93;100.00;101475.16;5053151;28;20029;-78
2021/12/18 05:24:54;;;;;;;20.33;8.95;;;;;;;2.79;100.00;101443.25;5053220;28;20444;-78
2021/12/18 05:27:19;;;;;;;16.83;9.15;;;;;;;2.81;100.00;101447.53;5052922;28;20036;-78
2021/12/18 05:29:44;;;;;;;13.57;8.82;;;;;;;2.80;100.00;101437.25;5054602;28;20020;-78
2021/12/18 05:32:10;;;;;;;14.80;8.75;;;;;;;2.89;100.00;101461.38;5054334;28;20025;-79
2021/12/18 05:34:37;;;;;;;17.40;8.32;;;;;;;2.84;100.00;101450.19;5054488;28;20059;-79
2021/12/18 05:37:32;;;;;;;15.30;8.40;;;;;;;2.92;100.00;101458.00;5054147;28;20036;-79
2021/12/18 05:39:58;;;;;;;14.20;8.27;;;;;;;2.82;100.00;101425.25;5053496;28;20025;-79
2021/12/18 05:42:23;;;;;;;13.77;8.18;;;;;;;2.90;100.00;101441.66;5052802;28;20063;-79
2021/12/18 05:44:49;;;;;;;20.50;9.13;;;;;;;2.83;100.00;101425.28;5054529;28;20029;-79
2021/12/18 05:47:14;;;;;;;16.77;8.85;;;;;;;2.79;100.00;101422.66;5052650;28;20396;-78
2021/12/18 05:49:39;;;;;;;15.43;8.32;;;;;;;2.90;100.00;101439.09;5052557;28;20044;-78
2021/12/18 05:52:06;;;;;;;16.30;9.02;;;;;;;2.89;100.00;101438.22;5052501;28;20404;-79
2021/12/18 05:54:35;;;;;;;14.88;8.95;;;;;;;2.92;100.00;101443.44;5053028;28;20025;-79
2021/12/18 05:57:03;;;;;;;15.77;9.15;;;;;;;2.84;100.00;101433.88;5052955;28;20507;-78
2021/12/18 05:59:29;;;;;;;14.02;8.70;;;;;;;2.90;100.00;101444.22;5052759;28;20033;-78
2021/12/18 06:01:54;;;;;;;14.27;8.27;;;;;;;2.89;100.00;101445.09;5053942;28;20048;-79
2021/12/18 06:04:19;;;;;;;9.82;7.43;;;;;;;2.92;100.00;101445.13;5053569;28;20085;-79
2021/12/18 06:06:45;;;;;;;13.60;8.25;;;;;;;2.91;100.00;101435.69;5053680;28;20396;-78
2021/12/18 06:09:11;;;;;;;13.57;8.00;;;;;;;2.95;100.00;101442.59;5053332;28;20029;-78
2021/12/18 06:11:38;;;;;;;17.25;8.32;;;;;;;2.87;100.00;101427.06;5052483;28;20024;-78
2021/12/18 06:14:04;;;;;;;16.65;8.60;;;;;;;2.95;100.00;101438.31;5052250;28;20033;-78
2021/12/18 06:16:30;;;;;;;15.05;7.93;;;;;;;2.93;100.00;101434.84;5052191;28;20572;-78
2021/12/18 06:18:55;;;;;;;12.80;7.82;;;;;;;2.90;100.00;101431.38;5053415;28;20029;-78
2021/12/18 06:21:22;;;;;;;11.90;8.73;;;;;;;2.90;100.00;101432.22;5053237;28;20021;-79
2021/12/18 06:23:51;;;;;;;13.85;8.23;;;;;;;2.89;100.00;101420.22;5051990;28;20415;-78
2021/12/18 06:26:18;;;;;;;16.55;8.57;;;;;;;2.93;100.00;101436.56;5053249;28;20028;-78
2021/12/18 06:28:44;;;;;;;11.85;8.05;;;;;;;2.85;100.00;101421.00;5052138;28;20115;-78
2021/12/18 06:31:09;;;;;;;13.27;8.45;;;;;;;2.90;100.00;101427.09;5052999;28;20547;-79
2021/12/18 06:33:34;;;;;;;14.52;7.57;;;;;;;2.90;100.00;101439.94;5051857;28;20029;-78
2021/12/18 06:36:00;;;;;;;12.45;8.80;;;;;;;2.89;100.00;101433.06;5051811;28;20116;-79
2021/12/18 06:38:26;;;;;;;13.23;7.63;;;;;;;2.74;100.00;101404.59;5051771;28;20039;-79
2021/12/18 06:40:51;;;;;;;13.90;7.88;;;;;;;2.94;100.00;101434.00;5051863;28;20051;-79
2021/12/18 06:43:17;;;;;;;16.25;8.95;;;;;;;2.95;100.00;101438.31;5052959;28;20025;-79
2021/12/18 06:45:42;;;;;;;12.07;7.70;;;;;;;2.81;100.00;101419.25;5051713;28;20500;-79
2021/12/18 06:48:07;;;;;;;13.35;7.03;;;;;;;2.96;100.00;101446.91;5052803;28;20055;-79
2021/12/18 06:50:34;;;;;;;14.68;7.95;;;;;;;2.84;100.00;101428.72;5052719;28;20028;-80
2021/12/18 06:53:00;;;;;;;13.88;8.68;;;;;;;2.96;100.00;101458.06;5053028;28;20033;-80
2021/12/18 06:55:26;;;;;;;12.50;8.27;;;;;;;2.94;100.00;101453.72;5053062;28;20287;-80
2021/12/18 06:57:52;;;;;;;16.33;8.90;;;;;;;2.94;100.00;101451.16;5051548;28;20036;-79
2021/12/18 07:00:19;;;;;;;11.73;7.15;;;;;;;2.95;100.00;101461.50;5052539;28;20388;-79
2021/12/18 07:02:45;;;;;;;13.63;7.35;;;;;;;2.87;100.00;101447.66;5052729;28;20033;-80
2021/12/18 07:05:10;;;;;;;12.50;7.75;;;;;;;2.91;100.00;101446.00;5051054;28;20035;-79
2021/12/18 07:07:36;;;;;;;16.38;7.65;;;;;;;2.94;100.00;101452.00;5051326;28;20025;-79
2021/12/18 07:10:04;;;;;;;13.02;6.90;;;;;;;2.83;100.00;101433.00;5061787;28;20082;-79
2021/12/18 07:12:30;;;;;;;10.75;6.57;;;;;;;2.95;100.00;101456.34;5070990;28;20033;-79
2021/12/18 07:14:55;;;;;;;12.85;6.40;;;;;;;2.84;100.00;101445.03;5072777;28;20101;-79
2021/12/18 07:17:21;;;;;;;12.25;6.75;;;;;;;2.93;100.00;101460.59;5072317;28;20505;-79
2021/12/18 07:19:46;;;;;;;11.27;6.38;;;;;;;2.95;100.00;101453.78;5072525;28;20100;-79
2021/12/18 07:22:11;;;;;;;10.55;5.97;;;;;;;2.95;100.00;101461.50;5072003;28;20453;-79
2021/12/18 07:24:37;;;;;;;19.10;10.70;;;;;;;2.82;100.00;101426.13;5072604;28;20025;-79
2021/12/18 07:27:02;;;;;;;17.65;9.82;;;;;;;2.93;100.00;101436.56;5072154;28;20027;-79
2021/12/18 07:29:28;;;;;;;12.57;8.45;;;;;;;2.93;100.00;101434.00;5071927;28;20051;-79
2021/12/18 07:31:53;;;;;;;11.60;7.90;;;;;;;2.96;100.00;101445.19;5070925;28;20536;-79
2021/12/18 07:34:19;;;;;;;14.68;7.78;;;;;;;2.94;100.00;101444.28;5072128;28;20225;-79
2021/12/18 07:36:44;;;;;;;14.30;7.43;;;;;;;2.97;100.00;101436.63;5072575;28;20114;-79
2021/12/18 07:39:11;;;;;;;22.77;12.75;;;;;;;2.97;100.00;101440.91;5069182;28;20115;-79
2021/12/18 07:41:39;;;;;;;36.08;24.33;;;;;;;2.98;100.00;101440.06;5069593;28;20044;-79
2021/12/18 07:44:06;;;;;;;31.88;20.38;;;;;;;2.89;100.00;101425.34;5069639;28;20060;-79
2021/12/18 07:46:36;;;;;;;50.25;30.27;;;;;;;2.80;100.00;101399.50;5069495;28;20032;-79
2021/12/18 07:49:03;;;;;;;40.53;25.77;;;;;;;2.94;100.00;101428.84;5048716;28;20134;-79
2021/12/18 07:51:29;;;;;;;41.83;26.65;;;;;;;2.80;100.00;101406.38;5049132;28;20049;-78
2021/12/18 07:53:54;;;;;;;24.83;18.48;;;;;;;2.98;100.00;101440.91;5049266;28;20048;-79
2021/12/18 07:56:20;;;;;;;30.58;19.83;;;;;;;2.96;100.00;101434.03;5049140;28;20029;-79
2021/12/18 07:58:45;;;;;;;34.88;18.55;;;;;;;2.99;100.00;101434.06;5049361;28;20538;-79
2021/12/18 08:01:11;;;;;;;30.63;15.10;;;;;;;3.04;100.00;101429.00;5049061;28;20033;-78
2021/12/18 08:03:36;;;;;;;13.77;8.93;;;;;;;3.04;100.00;101423.84;5032071;28;20055;-79
2021/12/18 08:06:03;;;;;;;15.85;8.13;;;;;;;3.03;100.00;101422.09;5049221;28;20036;-79
2021/12/18 08:08:28;;;;;;;10.43;7.72;;;;;;;3.09;100.00;101427.34;5032248;28;20068;-79
2021/12/18 08:10:54;;;;;;;14.75;7.70;;;;;;;3.12;100.00;101425.66;5065315;28;20033;-79
2021/12/18 08:13:20;;;;;;;12.15;9.70;;;;;;;3.10;100.00;101426.47;5069034;28;20043;-80
2021/12/18 08:15:45;;;;;;;11.20;8.13;;;;;;;3.11;100.00;101426.50;5052366;28;20036;-79
2021/12/18 08:18:10;;;;;;;18.40;11.07;;;;;;;3.15;100.00;101432.53;5051844;28;20594;-78
2021/12/18 08:20:37;;;;;;;23.17;15.57;;;;;;;3.06;100.00;101417.00;5056227;28;20041;-78
2021/12/18 08:23:04;;;;;;;20.50;15.07;;;;;;;3.18;100.00;101423.16;5051622;28;20091;-78
2021/12/18 08:25:31;;;;;;;20.33;12.00;;;;;;;3.11;100.00;101405.91;5051339;28;20627;-78
2021/12/18 08:28:01;;;;;;;20.35;10.88;;;;;;;3.21;100.00;101418.06;5051608;28;20029;-78
2021/12/18 08:30:28;;;;;;;18.05;10.57;;;;;;;3.23;100.00;101416.34;5051216;28;20027;-78
2021/12/18 08:32:58;;;;;;;16.50;10.18;;;;;;;3.28;100.00;101410.38;5051401;28;20100;-79
2021/12/18 08:35:26;;;;;;;15.73;9.07;;;;;;;3.28;100.00;101400.09;5051304;28;20057;-78
2021/12/18 08:37:52;;;;;;;15.65;10.60;;;;;;;3.40;100.00;101416.53;5051622;28;20035;-79
2021/12/18 08:40:18;;;;;;;14.65;10.00;;;;;;;3.41;100.00;101419.97;5051302;28;20028;-78
2021/12/18 08:42:44;;;;;;;17.33;10.32;;;;;;;3.43;100.00;101410.56;5051359;28;20025;-79
2021/12/18 08:45:10;;;;;;;16.85;10.50;;;;;;;3.36;100.00;101395.88;5050085;28;20033;-79
2021/12/18 08:47:36;;;;;;;16.60;9.98;;;;;;;3.43;100.00;101402.84;5050093;28;20033;-79
2021/12/18 08:50:03;;;;;;;12.25;9.95;;;;;;;3.42;100.00;101394.25;5062413;28;20051;-79
2021/12/18 08:52:28;;;;;;;17.60;11.00;;;;;;;3.53;100.00;101407.22;5069782;28;20035;-79
2021/12/18 08:54:54;;;;;;;17.83;10.40;;;;;;;3.47;100.00;101389.13;5071267;28;20025;-80
2021/12/18 08:57:20;;;;;;;15.18;10.45;;;;;;;3.52;100.00;101389.19;5071121;28;20024;-80
2021/12/18 08:59:45;;;;;;;14.88;11.55;;;;;;;3.55;100.00;101372.06;5071317;28;20055;-80
2021/12/18 09:02:11;;;;;;;13.68;10.32;;;;;;;3.60;100.00;101382.41;5071218;28;20028;-80
2021/12/18 09:04:38;;;;;;;17.92;12.13;;;;;;;3.61;100.00;101377.25;5071525;28;20028;-80
2021/12/18 09:07:05;;;;;;;18.42;11.55;;;;;;;3.68;100.00;101380.75;5071255;28;20479;-80
2021/12/18 09:09:30;;;;;;;19.15;12.52;;;;;;;3.61;100.00;101364.38;5070987;28;20518;-79
2021/12/18 09:11:56;;;;;;;21.75;12.30;;;;;;;3.75;100.00;101388.56;5071208;28;20048;-80
2021/12/18 09:14:21;;;;;;;18.20;12.70;;;;;;;3.77;100.00;101370.53;5069540;28;20058;-80
2021/12/18 09:16:46;;;;;;;18.25;12.10;;;;;;;3.83;100.00;101377.44;5071692;28;20056;-80
2021/12/18 09:19:12;;;;;;;18.88;12.32;;;;;;;3.78;100.00;101369.66;5073441;28;20020;-80
2021/12/18 09:21:38;;;;;;;20.42;13.85;;;;;;;3.82;100.00;101368.00;5074620;28;20024;-79
2021/12/18 09:24:04;;;;;;;23.00;15.25;;;;;;;3.86;100.00;101370.59;5065259;28;20033;-81
2021/12/18 09:26:29;;;;;;;18.63;12.68;;;;;;;3.86;100.00;101357.72;5062639;28;20032;-80
2021/12/18 09:28:55;;;;;;;21.83;13.85;;;;;;;3.86;100.00;101347.41;5073049;28;20025;-80
2021/12/18 09:31:20;;;;;;;23.40;15.43;;;;;;;3.92;100.00;101339.72;5072730;28;20028;-81
2021/12/18 09:33:45;;;;;;;22.83;14.10;;;;;;;3.95;100.00;101344.88;5074650;28;20117;-81
2021/12/18 09:36:11;;;;;;;20.65;14.25;;;;;;;4.03;100.00;101346.66;5074491;28;20494;-80
2021/12/18 09:38:36;;;;;;;19.02;12.88;;;;;;;4.12;100.00;101345.00;5072932;28;20035;-80
2021/12/18 09:41:03;;;;;;;19.10;12.73;;;;;;;4.06;100.00;101316.63;5074345;28;20051;-79
2021/12/18 09:43:29;;;;;;;20.08;14.45;;;;;;;4.25;100.00;101339.06;5073893;28;20712;-79
2021/12/18 09:46:02;;;;;;;19.98;12.13;;;;;;;4.24;100.00;101326.19;5073022;28;20020;-80
2021/12/18 09:48:27;;;;;;;19.30;12.32;;;;;;;4.24;100.00;101316.72;5073788;28;20052;-79
2021/12/18 09:50:56;;;;;;;23.40;13.10;;;;;;;4.25;100.00;101317.59;5073979;28;20036;-79
2021/12/18 09:53:22;;;;;;;18.70;12.63;;;;;;;4.39;100.00;101330.59;5073600;28;20032;-80
2021/12/18 09:55:47;;;;;;;18.63;11.93;;;;;;;4.34;100.00;101317.66;5074003;28;20032;-82
2021/12/18 09:58:13;;;;;;;16.27;11.23;;;;;;;4.28;100.00;101296.13;5072613;28;20116;-81
2021/12/18 10:00:38;;;;;;;18.80;12.13;;;;;;;4.35;100.00;101296.16;5073950;28;20480;-80
2021/12/18 10:03:03;;;;;;;20.98;14.75;;;;;;;4.46;100.00;101312.53;5072921;28;20032;-84
2021/12/18 10:05:32;;;;;;;17.00;13.00;;;;;;;4.48;100.00;101316.00;5073888;28;20028;-80
2021/12/18 10:08:18;;;;;;;16.35;11.65;;;;;;;4.47;100.00;101308.28;5073962;28;20526;-82
2021/12/18 10:11:06;;;;;;;13.15;11.10;;;;;;;4.61;100.00;101314.34;5073785;28;20024;-77
2021/12/18 10:14:02;;;;;;;16.83;11.52;;;;;;;4.51;100.00;101299.69;5073546;28;20031;-77
2021/12/18 10:16:28;;;;;;;19.23;12.23;;;;;;;4.59;100.00;101303.13;5073334;28;20353;-79
2021/12/18 10:18:55;;;;;;;19.17;11.55;;;;;;;4.51;100.00;101289.38;5073529;28;20020;-78
2021/12/18 10:21:24;;;;;;;16.55;10.98;;;;;;;4.45;100.00;101274.72;5072140;28;20115;-79
2021/12/18 10:23:51;;;;;;;16.13;11.70;;;;;;;4.60;100.00;101298.88;5073545;28;20020;-82
2021/12/18 10:26:29;;;;;;;15.85;11.32;;;;;;;4.57;100.00;101296.25;5073221;28;20512;-78
2021/12/18 10:28:55;;;;;;;17.55;10.82;;;;;;;4.57;100.00;101291.09;5073279;28;20539;-78
2021/12/18 10:31:45;;;;;;;15.45;10.52;;;;;;;4.63;100.00;101291.97;5071644;28;20142;-78
2021/12/18 10:34:17;;;;;;;19.80;12.43;;;;;;;4.66;100.00;101291.13;5070076;28;20029;-79
2021/12/18 10:37:11;;;;;;;15.70;10.55;;;;;;;4.66;100.00;101293.72;5061910;28;20024;-79
2021/12/18 10:39:45;;;;;;;15.40;9.23;;;;;;;4.52;100.00;101272.16;5055527;28;20043;-78
2021/12/18 10:42:39;;;;;;;15.88;10.32;;;;;;;4.62;100.00;101285.09;5051951;28;20033;-78
2021/12/18 10:45:07;;;;;;;15.20;10.27;;;;;;;4.62;100.00;101300.56;5033835;28;20059;-79
2021/12/18 10:47:47;;;;;;;15.75;11.23;;;;;;;4.65;100.00;101290.28;5049951;28;20044;-77
2021/12/18 10:50:25;;;;;;;15.70;10.53;;;;;;;4.68;100.00;101290.31;5050508;28;20086;-77
2021/12/18 10:53:20;;;;;;;18.63;10.35;;;;;;;4.65;100.00;101271.34;5033835;28;20275;-77
2021/12/18 10:55:47;;;;;;;16.75;11.20;;;;;;;4.75;100.00;101284.28;5050453;28;20128;-77
2021/12/18 10:58:25;;;;;;;19.20;12.95;;;;;;;4.77;100.00;101279.16;5050394;28;20139;-78
2021/12/18 11:01:02;;;;;;;13.95;10.65;;;;;;;4.72;100.00;101288.59;5050329;28;20036;-78
2021/12/18 11:03:45;;;;;;;17.75;12.13;;;;;;;4.68;100.00;101277.41;5033188;28;20059;-78
2021/12/18 11:06:14;;;;;;;17.02;11.18;;;;;;;4.70;100.00;101279.97;5033478;28;20121;-78
2021/12/18 11:09:04;;;;;;;16.70;10.23;;;;;;;4.60;100.00;101262.75;5049870;28;20036;-78
2021/12/18 11:14:10;;;;;;;29.98;17.73;;;;;;;4.67;100.00;101275.66;5050005;28;20036;-78
2021/12/18 11:16:37;;;;;;;22.17;14.65;;;;;;;4.64;100.00;101261.91;5049510;28;20048;-76
2021/12/18 11:19:06;;;;;;;33.58;18.95;;;;;;;4.68;100.00;101266.22;5050013;28;20518;-78
2021/12/18 11:21:32;;;;;;;39.33;21.98;;;;;;;4.70;100.00;101254.16;5050375;28;20392;-77
2021/12/18 11:24:06;;;;;;;34.00;19.45;;;;;;;4.72;100.00;101258.47;5051282;28;20033;-77
2021/12/18 11:26:43;;;;;;;20.30;13.52;;;;;;;4.75;100.00;101247.28;5052068;28;20029;-77
2021/12/18 11:29:18;;;;;;;19.05;12.55;;;;;;;4.63;100.00;101226.59;5052182;28;20040;-76
2021/12/18 11:31:45;;;;;;;18.48;13.63;;;;;;;4.69;100.00;101229.22;5051955;28;20028;-77
2021/12/18 11:34:11;;;;;;;15.90;12.00;;;;;;;4.75;100.00;101232.66;5052338;28;20488;-78
2021/12/18 11:36:43;;;;;;;17.73;12.65;;;;;;;4.68;100.00;101205.13;5052302;28;20029;-78
2021/12/18 11:39:11;;;;;;;21.85;16.27;;;;;;;4.80;100.00;101229.22;5051555;28;20155;-77
2021/12/18 11:41:38;;;;;;;18.05;12.57;;;;;;;4.77;100.00;101224.94;5050527;28;20025;-78
2021/12/18 11:44:23;;;;;;;20.77;13.05;;;;;;;4.81;100.00;101220.66;5052023;28;20028;-77
2021/12/18 11:46:48;;;;;;;14.43;11.13;;;;;;;4.78;100.00;101216.31;5052145;28;20021;-77
2021/12/18 11:49:13;;;;;;;21.80;13.32;;;;;;;4.78;100.00;101202.56;5050531;28;20547;-77
2021/12/18 11:51:39;;;;;;;23.63;15.30;;;;;;;4.82;100.00;101209.47;5050572;28;20111;-78
2021/12/18 11:54:43;;;;;;;17.55;11.43;;;;;;;4.88;100.00;101207.72;5050612;28;20036;-78
2021/12/18 11:57:10;;;;;;;16.15;10.52;;;;;;;4.85;100.00;101193.97;5052068;28;20154;-77